createdAt,value
2018-03-04T00:00:46.525Z,979.39
2018-03-04T00:01:55.980Z,979.4
2018-03-04T00:03:05.965Z,979.43
2018-03-04T00:04:15.421Z,979.43
2018-03-04T00:05:25.418Z,979.39
2018-03-04T00:06:35.135Z,979.46
2018-03-04T00:07:44.857Z,979.51
2018-03-04T00:08:54.846Z,979.47
2018-03-04T00:10:04.834Z,979.44
2018-03-04T00:11:14.554Z,979.43
2018-03-04T00:12:24.540Z,979.43
2018-03-04T00:13:34.262Z,979.43
2018-03-04T00:14:44.247Z,979.4
2018-03-04T00:15:54.232Z,979.38
2018-03-04T00:17:03.950Z,979.34
2018-03-04T00:18:13.403Z,979.33
2018-03-04T00:19:23.406Z,979.3
2018-03-04T00:20:33.129Z,979.29
2018-03-04T00:21:42.849Z,979.33
2018-03-04T00:22:52.571Z,979.31
2018-03-04T00:24:02.576Z,979.3
2018-03-04T00:25:12.309Z,979.31
2018-03-04T00:26:22.332Z,979.33
2018-03-04T00:27:32.321Z,979.24
2018-03-04T00:28:42.340Z,979.27
2018-03-04T00:29:52.062Z,979.28
2018-03-04T00:31:02.063Z,979.23
2018-03-04T00:32:12.056Z,979.23
2018-03-04T00:33:21.784Z,979.22
2018-03-04T00:34:31.511Z,979.18
2018-03-04T00:35:41.284Z,979.21
2018-03-04T00:36:51.282Z,979.22
2018-03-04T00:38:01.269Z,979.19
2018-03-04T00:39:11.262Z,979.22
2018-03-04T00:40:21.248Z,979.19
2018-03-04T00:41:31.238Z,979.19
2018-03-04T00:42:41.229Z,979.19
2018-03-04T00:43:50.417Z,979.16
2018-03-04T00:45:00.406Z,979.16
2018-03-04T00:46:09.588Z,979.14
2018-03-04T00:47:19.578Z,979.13
2018-03-04T00:48:29.296Z,979.16
2018-03-04T00:49:39.298Z,979.15
2018-03-04T00:50:49.287Z,979.18
2018-03-04T00:51:59.281Z,979.21
2018-03-04T00:53:09.010Z,979.2
2018-03-04T00:54:18.737Z,979.18
2018-03-04T00:55:28.722Z,979.13
2018-03-04T00:56:38.439Z,979.15
2018-03-04T00:57:48.159Z,979.17
2018-03-04T00:58:57.612Z,979.18
2018-03-04T01:00:07.613Z,979.15
2018-03-04T01:01:17.074Z,979.15
2018-03-04T01:02:26.798Z,979.13
2018-03-04T01:03:36.789Z,979.15
2018-03-04T01:04:46.783Z,979.13
2018-03-04T01:05:56.515Z,979.13
2018-03-04T01:07:06.238Z,979.08
2018-03-04T01:08:16.264Z,979.11
2018-03-04T01:09:26.254Z,979.1
2018-03-04T01:10:36.244Z,979.1
2018-03-04T01:11:45.968Z,979.14
2018-03-04T01:12:55.953Z,979.09
2018-03-04T01:14:05.947Z,979.09
2018-03-04T01:15:15.405Z,979.08
2018-03-04T01:16:25.392Z,979.08
2018-03-04T01:17:35.114Z,979.08
2018-03-04T01:18:45.098Z,979.08
2018-03-04T01:19:55.083Z,979.1
2018-03-04T01:21:04.811Z,979.06
2018-03-04T01:22:14.531Z,979.1
2018-03-04T01:23:24.515Z,979.05
2018-03-04T01:24:34.499Z,979.05
2018-03-04T01:25:44.226Z,979.04
2018-03-04T01:26:53.681Z,979.01
2018-03-04T01:28:03.237Z,979.01
2018-03-04T01:29:13.241Z,979.01
2018-03-04T01:30:22.960Z,979.02
2018-03-04T01:31:32.686Z,979.02
2018-03-04T01:32:42.672Z,979.03
2018-03-04T01:33:52.655Z,979.03
2018-03-04T01:35:02.383Z,979.04
2018-03-04T01:36:12.104Z,978.99
2018-03-04T01:37:22.135Z,978.97
2018-03-04T01:38:32.121Z,978.97
2018-03-04T01:39:41.847Z,979
2018-03-04T01:40:51.574Z,978.94
2018-03-04T01:42:01.579Z,978.92
2018-03-04T01:43:11.308Z,978.93
2018-03-04T01:44:21.295Z,978.91
2018-03-04T01:45:31.324Z,978.89
2018-03-04T01:46:41.313Z,978.88
2018-03-04T01:47:51.034Z,978.89
2018-03-04T01:49:00.813Z,978.91
2018-03-04T01:50:10.809Z,978.88
2018-03-04T01:51:20.888Z,978.86
2018-03-04T01:52:30.610Z,978.87
2018-03-04T01:53:40.070Z,978.84
2018-03-04T01:54:50.061Z,978.83
2018-03-04T01:56:00.052Z,978.86
2018-03-04T01:57:10.046Z,978.86
2018-03-04T01:58:20.032Z,978.82
2018-03-04T01:59:30.051Z,978.79
2018-03-04T02:00:40.037Z,978.75
2018-03-04T02:01:49.755Z,978.73
2018-03-04T02:02:59.747Z,978.7
2018-03-04T02:04:09.206Z,978.69
2018-03-04T02:05:19.196Z,978.7
2018-03-04T02:06:28.673Z,978.73
2018-03-04T02:07:38.663Z,978.72
2018-03-04T02:08:48.383Z,978.7
2018-03-04T02:09:58.379Z,978.7
2018-03-04T02:11:07.828Z,978.73
2018-03-04T02:12:17.550Z,978.74
2018-03-04T02:13:27.586Z,978.71
2018-03-04T02:14:37.590Z,978.74
2018-03-04T02:15:47.583Z,978.68
2018-03-04T02:16:57.578Z,978.71
2018-03-04T02:18:07.300Z,978.7
2018-03-04T02:19:17.024Z,978.67
2018-03-04T02:20:27.023Z,978.68
2018-03-04T02:21:37.018Z,978.63
2018-03-04T02:22:47.011Z,978.61
2018-03-04T02:23:56.744Z,978.66
2018-03-04T02:25:06.467Z,978.64
2018-03-04T02:26:16.458Z,978.6
2018-03-04T02:27:25.969Z,978.6
2018-03-04T02:28:35.961Z,978.56
2018-03-04T02:29:45.946Z,978.6
2018-03-04T02:30:55.935Z,978.58
2018-03-04T02:32:06.009Z,978.55
2018-03-04T02:33:15.472Z,978.53
2018-03-04T02:34:25.539Z,978.57
2018-03-04T02:35:35.300Z,978.55
2018-03-04T02:36:45.294Z,978.52
2018-03-04T02:37:55.298Z,978.55
2018-03-04T02:39:05.033Z,978.56
2018-03-04T02:40:14.517Z,978.54
2018-03-04T02:41:24.514Z,978.54
2018-03-04T02:42:33.708Z,978.52
2018-03-04T02:43:43.701Z,978.47
2018-03-04T02:44:53.706Z,978.48
2018-03-04T02:46:03.164Z,978.47
2018-03-04T02:47:12.623Z,978.44
2018-03-04T02:48:22.628Z,978.45
2018-03-04T02:49:32.629Z,978.4
2018-03-04T02:50:42.090Z,978.42
2018-03-04T02:51:52.105Z,978.43
2018-03-04T02:53:01.866Z,978.42
2018-03-04T02:54:11.865Z,978.41
2018-03-04T02:55:21.728Z,978.46
2018-03-04T02:56:31.736Z,978.45
2018-03-04T02:57:41.475Z,978.44
2018-03-04T02:58:51.472Z,978.46
2018-03-04T03:00:01.479Z,978.46
2018-03-04T03:01:11.495Z,978.46
2018-03-04T03:02:21.490Z,978.44
2018-03-04T03:03:31.503Z,978.41
2018-03-04T03:04:41.511Z,978.38
2018-03-04T03:05:51.503Z,978.33
2018-03-04T03:07:01.560Z,978.31
2018-03-04T03:08:10.484Z,978.32
2018-03-04T03:09:19.942Z,978.31
2018-03-04T03:10:29.401Z,978.28
2018-03-04T03:11:39.125Z,978.29
2018-03-04T03:12:49.113Z,978.29
2018-03-04T03:13:59.104Z,978.28
2018-03-04T03:15:08.291Z,978.23
2018-03-04T03:16:18.058Z,978.26
2018-03-04T03:17:27.520Z,978.25
2018-03-04T03:18:37.606Z,978.21
2018-03-04T03:19:47.604Z,978.22
2018-03-04T03:20:57.600Z,978.19
2018-03-04T03:22:07.649Z,978.2
2018-03-04T03:23:17.636Z,978.2
2018-03-04T03:24:27.728Z,978.21
2018-03-04T03:25:37.449Z,978.2
2018-03-04T03:26:47.439Z,978.19
2018-03-04T03:27:57.440Z,978.2
2018-03-04T03:29:07.424Z,978.21
2018-03-04T03:30:16.979Z,978.21
2018-03-04T03:31:26.454Z,978.21
2018-03-04T03:32:35.914Z,978.21
2018-03-04T03:33:45.916Z,978.19
2018-03-04T03:34:55.641Z,978.16
2018-03-04T03:36:05.462Z,978.14
2018-03-04T03:37:15.463Z,978.14
2018-03-04T03:38:25.187Z,978.15
2018-03-04T03:39:34.642Z,978.18
2018-03-04T03:40:44.630Z,978.14
2018-03-04T03:41:54.351Z,978.17
2018-03-04T03:43:04.351Z,978.12
2018-03-04T03:44:14.357Z,978.12
2018-03-04T03:45:24.348Z,978.12
2018-03-04T03:46:33.555Z,978.13
2018-03-04T03:47:43.539Z,978.12
2018-03-04T03:48:53.264Z,978.12
2018-03-04T03:50:02.720Z,978.11
2018-03-04T03:51:12.175Z,978.09
2018-03-04T03:52:21.903Z,978.08
2018-03-04T03:53:31.945Z,978.1
2018-03-04T03:54:41.665Z,978.11
2018-03-04T03:55:51.657Z,978.1
2018-03-04T03:57:01.385Z,978.08
2018-03-04T03:58:11.107Z,978.09
2018-03-04T03:59:21.110Z,978.07
2018-03-04T04:04:30.364Z,978.09
2018-03-04T04:05:39.819Z,978.1
2018-03-04T04:06:49.814Z,978.05
2018-03-04T04:07:59.816Z,978.05
2018-03-04T04:09:09.802Z,978.06
2018-03-04T04:10:19.522Z,978.04
2018-03-04T04:11:28.991Z,978.09
2018-03-04T04:12:38.976Z,978.04
2018-03-04T04:13:48.967Z,978.05
2018-03-04T04:14:58.954Z,978.03
2018-03-04T04:16:08.700Z,978.03
2018-03-04T04:17:18.151Z,978.04
2018-03-04T04:18:27.875Z,978.01
2018-03-04T04:19:37.863Z,978
2018-03-04T04:20:47.851Z,978.04
2018-03-04T04:21:57.923Z,977.97
2018-03-04T04:23:07.912Z,977.99
2018-03-04T04:24:17.372Z,977.99
2018-03-04T04:25:27.108Z,977.98
2018-03-04T04:26:36.834Z,977.97
2018-03-04T04:27:46.555Z,977.96
2018-03-04T04:28:56.274Z,977.99
2018-03-04T04:30:06.002Z,977.96
2018-03-04T04:31:15.187Z,978
2018-03-04T04:32:24.908Z,977.99
2018-03-04T04:33:34.889Z,977.95
2018-03-04T04:34:44.884Z,977.95
2018-03-04T04:35:54.878Z,977.88
2018-03-04T04:37:04.602Z,977.89
2018-03-04T04:38:14.588Z,977.88
2018-03-04T04:39:24.570Z,977.89
2018-03-04T04:40:34.283Z,977.85
2018-03-04T04:41:44.270Z,977.9
2018-03-04T04:42:53.989Z,977.87
2018-03-04T04:44:03.717Z,977.9
2018-03-04T04:45:12.906Z,977.88
2018-03-04T04:46:22.897Z,977.86
2018-03-04T04:47:32.626Z,977.9
2018-03-04T04:48:42.615Z,977.93
2018-03-04T04:49:52.614Z,977.89
2018-03-04T04:51:02.600Z,977.87
2018-03-04T04:52:12.323Z,977.9
2018-03-04T04:53:22.056Z,977.86
2018-03-04T04:54:32.040Z,977.89
2018-03-04T04:55:42.032Z,977.89
2018-03-04T04:56:51.320Z,977.92
2018-03-04T04:58:01.308Z,977.91
2018-03-04T04:59:11.300Z,977.93
2018-03-04T05:00:21.287Z,977.9
2018-03-04T05:01:31.006Z,977.89
2018-03-04T05:02:41.104Z,977.91
2018-03-04T05:03:50.821Z,977.92
2018-03-04T05:05:00.282Z,977.9
2018-03-04T05:06:10.273Z,977.9
2018-03-04T05:07:19.992Z,977.87
2018-03-04T05:08:29.712Z,977.86
2018-03-04T05:09:39.696Z,977.85
2018-03-04T05:10:49.686Z,977.84
2018-03-04T05:11:59.411Z,977.86
2018-03-04T05:13:08.864Z,977.84
2018-03-04T05:14:18.591Z,977.84
2018-03-04T05:15:28.619Z,977.85
2018-03-04T05:16:38.076Z,977.89
2018-03-04T05:17:47.803Z,977.86
2018-03-04T05:18:57.532Z,977.87
2018-03-04T05:20:07.643Z,977.88
2018-03-04T05:21:17.361Z,977.82
2018-03-04T05:22:27.082Z,977.84
2018-03-04T05:23:37.077Z,977.81
2018-03-04T05:24:46.536Z,977.81
2018-03-04T05:25:56.260Z,977.8
2018-03-04T05:27:05.717Z,977.77
2018-03-04T05:28:15.444Z,977.8
2018-03-04T05:29:25.172Z,977.78
2018-03-04T05:30:35.164Z,977.8
2018-03-04T05:31:45.154Z,977.8
2018-03-04T05:32:55.148Z,977.78
2018-03-04T05:34:05.140Z,977.78
2018-03-04T05:35:14.863Z,977.83
2018-03-04T05:36:24.855Z,977.81
2018-03-04T05:37:34.849Z,977.82
2018-03-04T05:38:44.846Z,977.82
2018-03-04T05:39:54.838Z,977.74
2018-03-04T05:41:04.298Z,977.8
2018-03-04T05:42:14.292Z,977.8
2018-03-04T05:43:24.276Z,977.79
2018-03-04T05:44:34.257Z,977.81
2018-03-04T05:45:44.290Z,977.76
2018-03-04T05:46:54.280Z,977.76
2018-03-04T05:48:04.274Z,977.78
2018-03-04T05:49:14.003Z,977.73
2018-03-04T05:50:24.002Z,977.73
2018-03-04T05:51:33.726Z,977.69
2018-03-04T05:52:43.452Z,977.76
2018-03-04T05:53:53.195Z,977.8
2018-03-04T05:55:02.922Z,977.77
2018-03-04T05:56:12.377Z,977.77
2018-03-04T05:57:22.097Z,977.78
2018-03-04T05:58:31.826Z,977.77
2018-03-04T05:59:41.818Z,977.8
2018-03-04T06:00:51.805Z,977.8
2018-03-04T06:02:01.267Z,977.81
2018-03-04T06:03:11.265Z,977.85
2018-03-04T06:04:20.721Z,977.83
2018-03-04T06:05:30.734Z,977.88
2018-03-04T06:06:40.192Z,977.91
2018-03-04T06:07:50.185Z,977.87
2018-03-04T06:09:00.169Z,977.84
2018-03-04T06:10:09.625Z,977.86
2018-03-04T06:11:19.354Z,977.85
2018-03-04T06:12:29.345Z,977.85
2018-03-04T06:13:39.341Z,977.89
2018-03-04T06:14:49.071Z,977.87
2018-03-04T06:15:59.056Z,977.88
2018-03-04T06:17:08.787Z,977.82
2018-03-04T06:18:17.977Z,977.86
2018-03-04T06:19:27.701Z,977.86
2018-03-04T06:20:37.155Z,977.82
2018-03-04T06:21:47.138Z,977.8
2018-03-04T06:22:57.126Z,977.81
2018-03-04T06:24:07.118Z,977.82
2018-03-04T06:25:16.848Z,977.84
2018-03-04T06:26:26.844Z,977.83
2018-03-04T06:27:36.824Z,977.81
2018-03-04T06:28:46.810Z,977.83
2018-03-04T06:29:56.794Z,977.86
2018-03-04T06:31:06.792Z,977.88
2018-03-04T06:32:16.791Z,977.93
2018-03-04T06:33:26.806Z,977.92
2018-03-04T06:34:36.572Z,977.96
2018-03-04T06:35:46.562Z,977.92
2018-03-04T06:36:56.546Z,977.94
2018-03-04T06:38:06.269Z,977.99
2018-03-04T06:39:16.316Z,977.93
2018-03-04T06:40:26.061Z,977.96
2018-03-04T06:41:35.251Z,977.98
2018-03-04T06:42:45.244Z,977.97
2018-03-04T06:43:54.965Z,977.94
2018-03-04T06:45:04.959Z,977.96
2018-03-04T06:46:14.957Z,977.94
2018-03-04T06:47:24.674Z,977.96
2018-03-04T06:48:34.661Z,977.99
2018-03-04T06:49:44.381Z,977.98
2018-03-04T06:50:54.371Z,977.98
2018-03-04T06:52:04.360Z,977.98
2018-03-04T06:53:14.093Z,978
2018-03-04T06:54:24.081Z,977.99
2018-03-04T06:55:34.063Z,978
2018-03-04T06:56:44.054Z,977.99
2018-03-04T06:57:54.073Z,978.01
2018-03-04T06:59:04.139Z,978.01
2018-03-04T07:00:13.595Z,978.02
2018-03-04T07:01:23.322Z,978.02
2018-03-04T07:02:32.775Z,978.03
2018-03-04T07:03:42.503Z,978.06
2018-03-04T07:04:52.248Z,978.03
2018-03-04T07:06:02.007Z,978.11
2018-03-04T07:07:11.463Z,978.1
2018-03-04T07:08:21.456Z,978.07
2018-03-04T07:09:31.175Z,978.08
2018-03-04T07:10:40.948Z,978.09
2018-03-04T07:11:50.937Z,978.09
2018-03-04T07:13:00.396Z,978.05
2018-03-04T07:14:09.848Z,978.07
2018-03-04T07:15:19.568Z,978.1
2018-03-04T07:16:29.563Z,978.09
2018-03-04T07:17:39.555Z,978.11
2018-03-04T07:18:49.284Z,978.12
2018-03-04T07:19:59.007Z,978.1
2018-03-04T07:21:08.995Z,978.11
2018-03-04T07:22:18.817Z,978.13
2018-03-04T07:23:28.872Z,978.1
2018-03-04T07:24:38.916Z,978.14
2018-03-04T07:25:48.921Z,978.11
2018-03-04T07:26:58.913Z,978.12
2018-03-04T07:28:09.007Z,978.12
2018-03-04T07:29:19.010Z,978.1
2018-03-04T07:30:28.731Z,978.12
2018-03-04T07:31:38.725Z,978.12
2018-03-04T07:32:48.711Z,978.08
2018-03-04T07:33:58.431Z,978.1
2018-03-04T07:35:08.202Z,978.09
2018-03-04T07:36:17.934Z,978.11
2018-03-04T07:37:27.652Z,978.1
2018-03-04T07:38:37.655Z,978.12
2018-03-04T07:39:47.640Z,978.15
2018-03-04T07:40:57.626Z,978.18
2018-03-04T07:42:07.359Z,978.19
2018-03-04T07:43:17.348Z,978.2
2018-03-04T07:44:27.341Z,978.21
2018-03-04T07:45:37.328Z,978.22
2018-03-04T07:46:47.322Z,978.22
2018-03-04T07:47:57.319Z,978.21
2018-03-04T07:49:06.781Z,978.16
2018-03-04T07:50:16.507Z,978.17
2018-03-04T07:51:26.490Z,978.14
2018-03-04T07:52:36.273Z,978.21
2018-03-04T07:53:46.266Z,978.23
2018-03-04T07:54:55.457Z,978.22
2018-03-04T07:56:04.912Z,978.23
2018-03-04T07:57:14.377Z,978.22
2018-03-04T07:58:23.830Z,978.25
2018-03-04T07:59:33.061Z,978.25
2018-03-04T08:00:42.853Z,978.24
2018-03-04T08:01:52.309Z,978.2
2018-03-04T08:03:02.035Z,978.2
2018-03-04T08:04:11.755Z,978.22
2018-03-04T08:05:21.212Z,978.17
2018-03-04T08:06:30.935Z,978.18
2018-03-04T08:07:40.926Z,978.15
2018-03-04T08:08:50.408Z,978.14
2018-03-04T08:10:00.132Z,978.08
2018-03-04T08:11:09.862Z,978.1
2018-03-04T08:12:19.857Z,978.13
2018-03-04T08:13:29.580Z,978.12
2018-03-04T08:14:39.613Z,978.11
2018-03-04T08:15:49.332Z,978.1
2018-03-04T08:16:59.315Z,978.07
2018-03-04T08:18:09.299Z,978.07
2018-03-04T08:19:19.300Z,978.09
2018-03-04T08:20:29.283Z,978.09
2018-03-04T08:21:39.267Z,978.06
2018-03-04T08:22:49.262Z,978.11
2018-03-04T08:23:59.272Z,978.12
2018-03-04T08:25:09.270Z,978.09
2018-03-04T08:26:19.098Z,978.1
2018-03-04T08:27:28.827Z,978.14
2018-03-04T08:28:38.874Z,978.11
2018-03-04T08:29:48.921Z,978.11
2018-03-04T08:30:58.911Z,978.14
2018-03-04T08:32:08.631Z,978.13
2018-03-04T08:33:18.359Z,978.13
2018-03-04T08:34:28.349Z,978.11
2018-03-04T08:35:38.177Z,978.12
2018-03-04T08:36:47.644Z,978.17
2018-03-04T08:37:57.369Z,978.15
2018-03-04T08:39:07.356Z,978.16
2018-03-04T08:40:17.149Z,978.15
2018-03-04T08:41:27.307Z,978.17
2018-03-04T08:42:37.037Z,978.15
2018-03-04T08:43:46.494Z,978.12
2018-03-04T08:44:56.478Z,978.13
2018-03-04T08:46:06.206Z,978.12
2018-03-04T08:47:15.930Z,978.15
2018-03-04T08:48:25.924Z,978.13
2018-03-04T08:49:35.649Z,978.17
2018-03-04T08:50:45.742Z,978.13
2018-03-04T08:51:55.254Z,978.16
2018-03-04T08:53:04.979Z,978.15
2018-03-04T08:54:14.975Z,978.13
2018-03-04T08:55:24.428Z,978.1
2018-03-04T08:56:34.416Z,978.12
2018-03-04T08:57:44.412Z,978.1
2018-03-04T08:58:54.403Z,978.14
2018-03-04T09:00:04.421Z,978.13
2018-03-04T09:01:14.820Z,978.1
2018-03-04T09:02:24.544Z,978.13
2018-03-04T09:03:34.275Z,978.16
2018-03-04T09:04:44.269Z,978.12
2018-03-04T09:05:53.992Z,978.15
2018-03-04T09:07:03.987Z,978.12
2018-03-04T09:08:13.972Z,978.08
2018-03-04T09:09:23.982Z,978.08
2018-03-04T09:10:34.085Z,978.12
2018-03-04T09:11:44.077Z,978.15
2018-03-04T09:12:54.072Z,978.14
2018-03-04T09:14:04.071Z,978.16
2018-03-04T09:15:13.531Z,978.16
2018-03-04T09:16:23.258Z,978.11
2018-03-04T09:17:32.982Z,978.14
2018-03-04T09:18:42.708Z,978.17
2018-03-04T09:19:52.199Z,978.21
2018-03-04T09:21:01.933Z,978.18
2018-03-04T09:22:11.658Z,978.2
2018-03-04T09:23:21.670Z,978.19
2018-03-04T09:24:31.409Z,978.22
2018-03-04T09:25:41.134Z,978.16
2018-03-04T09:26:50.595Z,978.17
2018-03-04T09:28:00.323Z,978.17
2018-03-04T09:29:09.792Z,978.13
2018-03-04T09:30:19.528Z,978.07
2018-03-04T09:31:29.265Z,978.09
2018-03-04T09:32:39.260Z,978.13
2018-03-04T09:33:49.254Z,978.08
2018-03-04T09:34:58.987Z,978.15
2018-03-04T09:36:08.446Z,978.16
2018-03-04T09:37:18.442Z,978.17
2018-03-04T09:38:28.506Z,978.15
2018-03-04T09:39:38.605Z,978.18
2018-03-04T09:40:48.606Z,978.14
2018-03-04T09:41:58.354Z,978.2
2018-03-04T09:43:08.081Z,978.2
2018-03-04T09:44:17.825Z,978.2
2018-03-04T09:45:27.891Z,978.24
2018-03-04T09:46:37.755Z,978.26
2018-03-04T09:47:47.482Z,978.21
2018-03-04T09:48:57.476Z,978.18
2018-03-04T09:50:07.509Z,978.19
2018-03-04T09:51:17.239Z,978.14
2018-03-04T09:52:27.231Z,978.2
2018-03-04T09:53:37.223Z,978.16
2018-03-04T09:54:47.220Z,978.15
2018-03-04T09:55:57.216Z,978.18
2018-03-04T09:57:07.224Z,978.16
2018-03-04T09:58:17.220Z,978.21
2018-03-04T09:59:26.786Z,978.17
2018-03-04T10:00:36.785Z,978.19
2018-03-04T10:01:46.775Z,978.12
2018-03-04T10:02:55.967Z,978.12
2018-03-04T10:04:05.426Z,978.1
2018-03-04T10:05:14.625Z,978.16
2018-03-04T10:06:24.620Z,978.14
2018-03-04T10:07:34.349Z,978.12
2018-03-04T10:08:44.366Z,978.11
2018-03-04T10:09:53.891Z,978.08
2018-03-04T10:11:03.357Z,978.04
2018-03-04T10:12:12.821Z,978.02
2018-03-04T10:13:22.277Z,978.07
2018-03-04T10:14:32.274Z,978.06
2018-03-04T10:15:42.002Z,978.09
2018-03-04T10:16:52.003Z,978.08
2018-03-04T10:18:01.728Z,978.03
2018-03-04T10:19:11.732Z,978.1
2018-03-04T10:20:21.737Z,978.09
2018-03-04T10:21:31.842Z,978.07
2018-03-04T10:22:41.571Z,978.08
2018-03-04T10:23:51.305Z,978.08
2018-03-04T10:25:00.765Z,978
2018-03-04T10:26:09.992Z,978.01
2018-03-04T10:27:19.493Z,978
2018-03-04T10:28:29.485Z,978.03
2018-03-04T10:29:39.490Z,977.99
2018-03-04T10:30:49.490Z,978.03
2018-03-04T10:31:59.482Z,977.97
2018-03-04T10:33:09.484Z,978.01
2018-03-04T10:34:19.262Z,978
2018-03-04T10:35:28.456Z,977.99
2018-03-04T10:36:38.452Z,977.98
2018-03-04T10:37:47.913Z,977.96
2018-03-04T10:38:57.386Z,977.97
2018-03-04T10:40:07.386Z,977.99
2018-03-04T10:41:17.439Z,978
2018-03-04T10:42:27.182Z,977.98
2018-03-04T10:43:36.909Z,977.97
2018-03-04T10:44:46.629Z,977.92
2018-03-04T10:45:56.727Z,977.94
2018-03-04T10:47:06.187Z,977.93
2018-03-04T10:48:16.178Z,977.93
2018-03-04T10:49:26.180Z,977.89
2018-03-04T10:50:35.643Z,977.87
2018-03-04T10:51:45.652Z,977.91
2018-03-04T10:52:55.381Z,977.87
2018-03-04T10:54:04.848Z,977.87
2018-03-04T10:55:14.845Z,977.85
2018-03-04T10:56:24.574Z,977.84
2018-03-04T10:57:34.302Z,977.83
2018-03-04T10:58:44.322Z,977.81
2018-03-04T10:59:54.330Z,977.81
2018-03-04T11:01:04.072Z,977.84
2018-03-04T11:02:14.073Z,977.77
2018-03-04T11:03:24.071Z,977.78
2018-03-04T11:04:34.061Z,977.78
2018-03-04T11:05:43.809Z,977.78
2018-03-04T11:06:53.805Z,977.76
2018-03-04T11:08:03.529Z,977.77
2018-03-04T11:09:13.539Z,977.81
2018-03-04T11:10:23.584Z,977.76
2018-03-04T11:11:33.355Z,977.73
2018-03-04T11:12:43.424Z,977.73
2018-03-04T11:13:53.417Z,977.73
2018-03-04T11:15:03.143Z,977.67
2018-03-04T11:16:12.340Z,977.63
2018-03-04T11:17:22.071Z,977.62
2018-03-04T11:18:31.535Z,977.61
2018-03-04T11:19:41.528Z,977.63
2018-03-04T11:20:51.529Z,977.6
2018-03-04T11:22:01.533Z,977.64
2018-03-04T11:23:10.997Z,977.62
2018-03-04T11:24:20.996Z,977.64
2018-03-04T11:25:30.536Z,977.64
2018-03-04T11:26:39.999Z,977.6
2018-03-04T11:27:49.479Z,977.6
2018-03-04T11:28:59.221Z,977.6
2018-03-04T11:30:09.228Z,977.58
2018-03-04T11:31:18.697Z,977.6
2018-03-04T11:32:28.532Z,977.65
2018-03-04T11:33:38.538Z,977.67
2018-03-04T11:34:47.738Z,977.65
2018-03-04T11:35:57.468Z,977.65
2018-03-04T11:37:06.945Z,977.66
2018-03-04T11:38:16.687Z,977.62
2018-03-04T11:39:26.422Z,977.61
2018-03-04T11:40:35.354Z,977.58
2018-03-04T11:41:44.829Z,977.62
2018-03-04T11:42:54.086Z,977.61
2018-03-04T11:44:04.104Z,977.66
2018-03-04T11:45:13.568Z,977.62
2018-03-04T11:46:22.771Z,977.65
2018-03-04T11:47:31.971Z,977.63
2018-03-04T11:48:41.442Z,977.69
2018-03-04T11:49:51.437Z,977.66
2018-03-04T11:51:01.449Z,977.61
2018-03-04T11:52:11.468Z,977.62
2018-03-04T11:53:21.220Z,977.65
2018-03-04T11:54:31.217Z,977.64
2018-03-04T11:55:41.220Z,977.6
2018-03-04T11:56:51.283Z,977.59
2018-03-04T11:58:01.019Z,977.61
2018-03-04T11:59:10.754Z,977.62
2018-03-04T12:00:20.490Z,977.61
2018-03-04T12:01:30.229Z,977.64
2018-03-04T12:02:39.700Z,977.6
2018-03-04T12:03:49.702Z,977.6
2018-03-04T12:04:59.570Z,977.6
2018-03-04T12:06:09.320Z,977.61
2018-03-04T12:07:19.054Z,977.61
2018-03-04T12:08:29.199Z,977.65
2018-03-04T12:09:39.277Z,977.67
2018-03-04T12:10:49.476Z,977.66
2018-03-04T12:11:59.495Z,977.64
2018-03-04T12:13:09.230Z,977.6
2018-03-04T12:14:18.699Z,977.65
2018-03-04T12:15:28.165Z,977.66
2018-03-04T12:16:37.917Z,977.63
2018-03-04T12:17:47.658Z,977.66
2018-03-04T12:18:57.675Z,977.65
2018-03-04T12:20:07.414Z,977.65
2018-03-04T12:21:17.149Z,977.63
2018-03-04T12:22:26.888Z,977.57
2018-03-04T12:23:36.894Z,977.55
2018-03-04T12:24:46.629Z,977.58
2018-03-04T12:25:56.373Z,977.55
2018-03-04T12:27:05.848Z,977.56
2018-03-04T12:28:15.321Z,977.57
2018-03-04T12:29:25.337Z,977.51
2018-03-04T12:30:35.176Z,977.52
2018-03-04T12:31:45.183Z,977.56
2018-03-04T12:32:54.652Z,977.51
2018-03-04T12:34:04.657Z,977.55
2018-03-04T12:35:14.400Z,977.53
2018-03-04T12:36:24.146Z,977.5
2018-03-04T12:37:34.156Z,977.48
2018-03-04T12:38:44.163Z,977.43
2018-03-04T12:39:53.637Z,977.45
2018-03-04T12:41:03.379Z,977.45
2018-03-04T12:42:13.168Z,977.43
2018-03-04T12:43:22.587Z,977.4
2018-03-04T12:44:32.599Z,977.38
2018-03-04T12:45:42.072Z,977.41
2018-03-04T12:46:52.083Z,977.41
2018-03-04T12:48:02.101Z,977.44
2018-03-04T12:49:12.106Z,977.39
2018-03-04T12:50:22.112Z,977.4
2018-03-04T12:51:31.855Z,977.34
2018-03-04T12:52:41.601Z,977.36
2018-03-04T12:53:51.609Z,977.28
2018-03-04T12:55:01.088Z,977.24
2018-03-04T12:56:10.899Z,977.24
2018-03-04T12:57:21.744Z,977.26
2018-03-04T12:58:31.916Z,977.3
2018-03-04T12:59:42.010Z,977.25
2018-03-04T13:00:52.018Z,977.28
2018-03-04T13:02:01.758Z,977.29
2018-03-04T13:03:11.781Z,977.3
2018-03-04T13:04:21.254Z,977.25
2018-03-04T13:05:30.461Z,977.31
2018-03-04T13:06:39.935Z,977.31
2018-03-04T13:07:49.725Z,977.34
2018-03-04T13:08:59.471Z,977.28
2018-03-04T13:10:09.483Z,977.22
2018-03-04T13:11:19.494Z,977.18
2018-03-04T13:12:29.235Z,977.19
2018-03-04T13:13:38.706Z,977.18
2018-03-04T13:14:48.178Z,977.17
2018-03-04T13:15:57.919Z,977.17
2018-03-04T13:17:07.928Z,977.12
2018-03-04T13:18:17.683Z,977.13
2018-03-04T13:19:26.972Z,977.12
2018-03-04T13:20:36.712Z,977.13
2018-03-04T13:21:46.449Z,977.17
2018-03-04T13:22:56.559Z,977.18
2018-03-04T13:24:06.304Z,977.15
2018-03-04T13:25:16.309Z,977.12
2018-03-04T13:26:26.306Z,977.19
2018-03-04T13:27:36.317Z,977.21
2018-03-04T13:28:45.790Z,977.15
2018-03-04T13:29:55.825Z,977.18
2018-03-04T13:31:05.027Z,977.17
2018-03-04T13:32:15.033Z,977.12
2018-03-04T13:33:24.505Z,977.1
2018-03-04T13:34:34.509Z,977.09
2018-03-04T13:35:44.244Z,977.1
2018-03-04T13:36:54.246Z,977.1
2018-03-04T13:38:03.982Z,977.1
2018-03-04T13:39:13.986Z,977.1
2018-03-04T13:40:23.986Z,977.05
2018-03-04T13:41:33.727Z,977.1
2018-03-04T13:42:43.731Z,977.07
2018-03-04T13:43:53.465Z,977.08
2018-03-04T13:45:03.212Z,977.05
2018-03-04T13:46:12.955Z,977.08
2018-03-04T13:47:22.797Z,977.03
2018-03-04T13:48:32.530Z,977.06
2018-03-04T13:49:42.000Z,977.06
2018-03-04T13:50:51.475Z,977.06
2018-03-04T13:52:01.213Z,977.05
2018-03-04T13:53:11.215Z,977.03
2018-03-04T13:54:21.221Z,977.01
2018-03-04T13:55:30.963Z,977.02
2018-03-04T13:56:40.968Z,977.07
2018-03-04T13:57:50.699Z,977.03
2018-03-04T13:59:00.438Z,977.02
2018-03-04T14:00:10.446Z,977.02
2018-03-04T14:01:20.227Z,977.01
2018-03-04T14:02:29.705Z,977
2018-03-04T14:03:39.709Z,977
2018-03-04T14:04:49.175Z,977.04
2018-03-04T14:05:59.192Z,977.07
2018-03-04T14:07:08.927Z,977.04
2018-03-04T14:08:18.922Z,976.99
2018-03-04T14:09:28.660Z,977
2018-03-04T14:10:38.659Z,976.99
2018-03-04T14:11:48.661Z,976.99
2018-03-04T14:12:58.667Z,976.96
2018-03-04T14:14:08.667Z,976.97
2018-03-04T14:15:18.669Z,976.97
2018-03-04T14:16:28.716Z,976.97
2018-03-04T14:17:38.591Z,976.96
2018-03-04T14:18:48.592Z,976.93
2018-03-04T14:19:58.599Z,976.95
2018-03-04T14:21:08.068Z,976.94
2018-03-04T14:22:18.069Z,976.91
2018-03-04T14:23:27.803Z,976.94
2018-03-04T14:24:37.268Z,976.92
2018-03-04T14:25:47.017Z,976.91
2018-03-04T14:26:56.753Z,976.86
2018-03-04T14:28:06.490Z,976.9
2018-03-04T14:29:15.955Z,976.89
2018-03-04T14:30:26.066Z,976.89
2018-03-04T14:31:35.532Z,976.9
2018-03-04T14:32:45.421Z,976.91
2018-03-04T14:33:55.430Z,976.89
2018-03-04T14:35:05.164Z,976.89
2018-03-04T14:36:14.914Z,976.88
2018-03-04T14:37:24.639Z,976.92
2018-03-04T14:38:34.635Z,976.86
2018-03-04T14:39:44.367Z,976.87